sensor_id;sensor_type;location;lat;lon;timestamp;pressure;altitude;pressure_sealevel;temperature;humidity
57885;BME280;43703;51.060;-0.086;2022-09-17T00:00:05;100738.75;;;8.68;54.08
57885;BME280;43703;51.060;-0.086;2022-09-17T00:02:29;100738.63;;;8.94;53.47
57885;BME280;43703;51.060;-0.086;2022-09-17T00:04:54;100737.23;;;8.47;53.08
57885;BME280;43703;51.060;-0.086;2022-09-17T00:07:19;100738.25;;;8.77;55.71
57885;BME280;43703;51.060;-0.086;2022-09-17T00:09:44;100742.59;;;8.98;55.29
57885;BME280;43703;51.060;-0.086;2022-09-17T00:12:10;100744.89;;;8.78;54.53
57885;BME280;43703;51.060;-0.086;2022-09-17T00:14:35;100748.29;;;8.56;52.77
57885;BME280;43703;51.060;-0.086;2022-09-17T00:16:59;100740.59;;;8.47;55.11
57885;BME280;43703;51.060;-0.086;2022-09-17T00:19:24;100743.78;;;8.51;55.12
57885;BME280;43703;51.060;-0.086;2022-09-17T00:21:50;100753.83;;;8.62;52.41
57885;BME280;43703;51.060;-0.086;2022-09-17T00:24:16;100751.56;;;8.20;52.45
57885;BME280;43703;51.060;-0.086;2022-09-17T00:26:40;100747.88;;;8.36;53.43
57885;BME280;43703;51.060;-0.086;2022-09-17T00:29:05;100748.07;;;8.69;55.83
57885;BME280;43703;51.060;-0.086;2022-09-17T00:31:30;100748.95;;;8.43;51.08
57885;BME280;43703;51.060;-0.086;2022-09-17T00:33:55;100748.59;;;8.49;53.69
57885;BME280;43703;51.060;-0.086;2022-09-17T00:36:20;100740.43;;;8.72;54.63
57885;BME280;43703;51.060;-0.086;2022-09-17T00:38:48;100739.30;;;8.69;53.85
57885;BME280;43703;51.060;-0.086;2022-09-17T00:41:10;100740.15;;;8.73;54.79
57885;BME280;43703;51.060;-0.086;2022-09-17T00:43:40;100737.00;;;8.27;54.70
57885;BME280;43703;51.060;-0.086;2022-09-17T00:46:01;100729.07;;;8.63;53.35
57885;BME280;43703;51.060;-0.086;2022-09-17T00:48:26;100730.28;;;8.54;53.33
57885;BME280;43703;51.060;-0.086;2022-09-17T00:50:51;100732.70;;;8.54;52.98
57885;BME280;43703;51.060;-0.086;2022-09-17T00:53:17;100731.75;;;8.19;54.93
57885;BME280;43703;51.060;-0.086;2022-09-17T00:55:44;100730.84;;;8.48;54.32
57885;BME280;43703;51.060;-0.086;2022-09-17T00:58:08;100729.87;;;8.63;54.23
57885;BME280;43703;51.060;-0.086;2022-09-17T01:00:31;100724.28;;;8.63;54.82
57885;BME280;43703;51.060;-0.086;2022-09-17T01:02:56;100721.77;;;8.22;53.30
57885;BME280;43703;51.060;-0.086;2022-09-17T01:05:27;100724.53;;;8.55;54.61
57885;BME280;43703;51.060;-0.086;2022-09-17T01:07:58;100726.26;;;8.50;54.35
57885;BME280;43703;51.060;-0.086;2022-09-17T01:10:20;100726.81;;;8.35;52.00
57885;BME280;43703;51.060;-0.086;2022-09-17T01:12:46;100725.64;;;8.19;52.07
57885;BME280;43703;51.060;-0.086;2022-09-17T01:15:12;100728.89;;;7.82;52.19
57885;BME280;43703;51.060;-0.086;2022-09-17T01:17:31;100729.14;;;7.93;53.91
57885;BME280;43703;51.060;-0.086;2022-09-17T01:22:20;100725.87;;;7.45;52.88
57885;BME280;43703;51.060;-0.086;2022-09-17T01:24:47;100722.14;;;8.21;55.98
57885;BME280;43703;51.060;-0.086;2022-09-17T01:29:45;100735.49;;;7.89;54.44
57885;BME280;43703;51.060;-0.086;2022-09-17T01:32:00;100731.68;;;7.47;53.64
57885;BME280;43703;51.060;-0.086;2022-09-17T01:34:27;100737.61;;;7.81;54.46
57885;BME280;43703;51.060;-0.086;2022-09-17T01:36:58;100740.33;;;7.78;53.67
57885;BME280;43703;51.060;-0.086;2022-09-17T01:39:20;100746.57;;;7.40;52.73
57885;BME280;43703;51.060;-0.086;2022-09-17T01:41:42;100748.60;;;7.35;53.53
57885;BME280;43703;51.060;-0.086;2022-09-17T01:44:05;100749.28;;;7.37;54.39
57885;BME280;43703;51.060;-0.086;2022-09-17T01:46:30;100741.58;;;7.51;55.10
57885;BME280;43703;51.060;-0.086;2022-09-17T01:48:57;100739.73;;;7.70;57.10
57885;BME280;43703;51.060;-0.086;2022-09-17T01:51:21;100741.29;;;7.95;55.97
57885;BME280;43703;51.060;-0.086;2022-09-17T01:53:46;100748.00;;;7.92;54.84
57885;BME280;43703;51.060;-0.086;2022-09-17T01:56:09;100752.40;;;7.16;53.18
57885;BME280;43703;51.060;-0.086;2022-09-17T01:58:35;100747.46;;;7.90;55.57
57885;BME280;43703;51.060;-0.086;2022-09-17T02:01:01;100747.42;;;7.71;53.93
57885;BME280;43703;51.060;-0.086;2022-09-17T02:03:25;100747.87;;;7.73;53.78
57885;BME280;43703;51.060;-0.086;2022-09-17T02:05:50;100750.95;;;7.59;54.11
57885;BME280;43703;51.060;-0.086;2022-09-17T02:08:15;100746.59;;;7.62;54.36
57885;BME280;43703;51.060;-0.086;2022-09-17T02:10:44;100749.84;;;7.81;55.77
57885;BME280;43703;51.060;-0.086;2022-09-17T02:13:07;100751.34;;;8.03;54.97
57885;BME280;43703;51.060;-0.086;2022-09-17T02:15:33;100754.47;;;7.33;53.18
57885;BME280;43703;51.060;-0.086;2022-09-17T02:17:56;100757.87;;;7.68;55.04
57885;BME280;43703;51.060;-0.086;2022-09-17T02:20:22;100753.91;;;7.75;56.11
57885;BME280;43703;51.060;-0.086;2022-09-17T02:22:48;100756.65;;;7.67;55.08
57885;BME280;43703;51.060;-0.086;2022-09-17T02:25:16;100762.99;;;7.76;55.64
57885;BME280;43703;51.060;-0.086;2022-09-17T02:27:38;100764.76;;;7.72;54.45
57885;BME280;43703;51.060;-0.086;2022-09-17T02:29:58;100757.95;;;7.67;54.43
57885;BME280;43703;51.060;-0.086;2022-09-17T02:32:23;100757.73;;;7.54;54.79
57885;BME280;43703;51.060;-0.086;2022-09-17T02:34:48;100760.99;;;7.47;54.65
57885;BME280;43703;51.060;-0.086;2022-09-17T02:37:13;100762.52;;;7.26;54.01
57885;BME280;43703;51.060;-0.086;2022-09-17T02:39:38;100767.67;;;7.83;55.16
57885;BME280;43703;51.060;-0.086;2022-09-17T02:42:12;100762.34;;;7.67;54.36
57885;BME280;43703;51.060;-0.086;2022-09-17T02:44:35;100766.45;;;7.35;53.46
57885;BME280;43703;51.060;-0.086;2022-09-17T02:49:31;100769.53;;;6.94;53.51
57885;BME280;43703;51.060;-0.086;2022-09-17T02:51:50;100769.59;;;7.36;54.69
57885;BME280;43703;51.060;-0.086;2022-09-17T02:54:16;100769.78;;;7.30;55.33
57885;BME280;43703;51.060;-0.086;2022-09-17T02:56:42;100773.01;;;7.58;54.07
57885;BME280;43703;51.060;-0.086;2022-09-17T02:59:05;100778.16;;;7.74;55.52
57885;BME280;43703;51.060;-0.086;2022-09-17T03:01:28;100777.32;;;7.42;53.27
57885;BME280;43703;51.060;-0.086;2022-09-17T03:03:50;100777.75;;;7.16;53.90
57885;BME280;43703;51.060;-0.086;2022-09-17T03:06:15;100778.95;;;7.24;53.78
57885;BME280;43703;51.060;-0.086;2022-09-17T03:08:41;100778.84;;;7.66;56.27
57885;BME280;43703;51.060;-0.086;2022-09-17T03:11:05;100781.17;;;7.38;53.80
57885;BME280;43703;51.060;-0.086;2022-09-17T03:13:30;100777.89;;;7.62;55.15
57885;BME280;43703;51.060;-0.086;2022-09-17T03:15:55;100780.42;;;7.46;54.77
57885;BME280;43703;51.060;-0.086;2022-09-17T03:18:20;100784.18;;;7.62;55.58
57885;BME280;43703;51.060;-0.086;2022-09-17T03:20:45;100783.23;;;7.56;55.48
57885;BME280;43703;51.060;-0.086;2022-09-17T03:23:10;100775.82;;;7.46;55.43
57885;BME280;43703;51.060;-0.086;2022-09-17T03:25:35;100769.72;;;7.95;56.80
57885;BME280;43703;51.060;-0.086;2022-09-17T03:28:00;100765.41;;;7.74;56.48
57885;BME280;43703;51.060;-0.086;2022-09-17T03:30:25;100764.75;;;7.48;54.34
57885;BME280;43703;51.060;-0.086;2022-09-17T03:32:50;100763.58;;;7.74;55.41
57885;BME280;43703;51.060;-0.086;2022-09-17T03:35:15;100763.14;;;7.61;55.80
57885;BME280;43703;51.060;-0.086;2022-09-17T03:37:40;100765.55;;;7.30;54.71
57885;BME280;43703;51.060;-0.086;2022-09-17T03:40:06;100762.58;;;7.81;56.83
57885;BME280;43703;51.060;-0.086;2022-09-17T03:42:30;100765.17;;;7.47;53.74
57885;BME280;43703;51.060;-0.086;2022-09-17T03:44:56;100762.62;;;7.45;54.81
57885;BME280;43703;51.060;-0.086;2022-09-17T03:47:21;100760.23;;;7.71;55.33
57885;BME280;43703;51.060;-0.086;2022-09-17T03:49:46;100758.48;;;7.02;53.48
57885;BME280;43703;51.060;-0.086;2022-09-17T03:52:11;100760.54;;;7.21;54.80
57885;BME280;43703;51.060;-0.086;2022-09-17T03:54:55;100759.24;;;7.50;56.73
57885;BME280;43703;51.060;-0.086;2022-09-17T03:57:01;100760.54;;;7.09;54.89
57885;BME280;43703;51.060;-0.086;2022-09-17T03:59:26;100761.03;;;7.17;55.52
57885;BME280;43703;51.060;-0.086;2022-09-17T04:01:51;100762.52;;;6.90;54.04
57885;BME280;43703;51.060;-0.086;2022-09-17T04:04:16;100767.06;;;6.68;54.63
57885;BME280;43703;51.060;-0.086;2022-09-17T04:06:41;100764.86;;;6.90;54.67
57885;BME280;43703;51.060;-0.086;2022-09-17T04:09:06;100762.35;;;6.65;54.95
57885;BME280;43703;51.060;-0.086;2022-09-17T04:11:32;100763.20;;;6.59;55.04
57885;BME280;43703;51.060;-0.086;2022-09-17T04:13:57;100767.16;;;6.71;57.18
57885;BME280;43703;51.060;-0.086;2022-09-17T04:16:22;100761.78;;;7.14;57.11
57885;BME280;43703;51.060;-0.086;2022-09-17T04:18:47;100762.94;;;7.32;57.60
57885;BME280;43703;51.060;-0.086;2022-09-17T04:21:12;100761.65;;;6.89;55.91
57885;BME280;43703;51.060;-0.086;2022-09-17T04:23:37;100765.29;;;7.14;55.86
57885;BME280;43703;51.060;-0.086;2022-09-17T04:26:02;100766.02;;;7.13;55.27
57885;BME280;43703;51.060;-0.086;2022-09-17T04:28:27;100765.96;;;7.20;56.46
57885;BME280;43703;51.060;-0.086;2022-09-17T04:30:52;100765.25;;;6.79;54.19
57885;BME280;43703;51.060;-0.086;2022-09-17T04:33:17;100768.89;;;6.94;55.23
57885;BME280;43703;51.060;-0.086;2022-09-17T04:35:42;100768.37;;;6.83;55.02
57885;BME280;43703;51.060;-0.086;2022-09-17T04:38:08;100771.33;;;7.22;56.50
57885;BME280;43703;51.060;-0.086;2022-09-17T04:40:32;100769.66;;;7.34;56.82
57885;BME280;43703;51.060;-0.086;2022-09-17T04:42:58;100765.33;;;7.22;55.82
57885;BME280;43703;51.060;-0.086;2022-09-17T04:45:23;100764.65;;;7.28;56.95
57885;BME280;43703;51.060;-0.086;2022-09-17T04:47:48;100762.74;;;7.24;56.35
57885;BME280;43703;51.060;-0.086;2022-09-17T04:50:13;100764.30;;;7.59;56.49
57885;BME280;43703;51.060;-0.086;2022-09-17T04:52:42;100765.36;;;6.81;54.01
57885;BME280;43703;51.060;-0.086;2022-09-17T04:55:04;100765.78;;;7.12;55.94
57885;BME280;43703;51.060;-0.086;2022-09-17T04:57:28;100763.64;;;7.19;55.20
57885;BME280;43703;51.060;-0.086;2022-09-17T04:59:53;100765.03;;;7.13;56.31
57885;BME280;43703;51.060;-0.086;2022-09-17T05:02:18;100769.92;;;7.14;57.70
57885;BME280;43703;51.060;-0.086;2022-09-17T05:04:44;100768.16;;;6.95;56.14
57885;BME280;43703;51.060;-0.086;2022-09-17T05:07:09;100767.73;;;6.44;54.64
57885;BME280;43703;51.060;-0.086;2022-09-17T05:09:33;100769.32;;;6.50;55.11
57885;BME280;43703;51.060;-0.086;2022-09-17T05:11:59;100772.15;;;6.91;57.42
57885;BME280;43703;51.060;-0.086;2022-09-17T05:14:24;100775.87;;;7.17;57.74
57885;BME280;43703;51.060;-0.086;2022-09-17T05:16:49;100774.38;;;6.80;56.31
57885;BME280;43703;51.060;-0.086;2022-09-17T05:19:14;100775.34;;;7.03;56.60
57885;BME280;43703;51.060;-0.086;2022-09-17T05:21:39;100774.33;;;7.32;56.16
57885;BME280;43703;51.060;-0.086;2022-09-17T05:24:04;100775.88;;;6.84;55.93
57885;BME280;43703;51.060;-0.086;2022-09-17T05:26:29;100776.14;;;7.09;55.76
57885;BME280;43703;51.060;-0.086;2022-09-17T05:28:54;100780.67;;;7.49;57.47
57885;BME280;43703;51.060;-0.086;2022-09-17T05:31:19;100777.67;;;7.05;57.22
57885;BME280;43703;51.060;-0.086;2022-09-17T05:33:45;100778.76;;;7.08;57.06
57885;BME280;43703;51.060;-0.086;2022-09-17T05:36:09;100776.49;;;7.07;55.88
57885;BME280;43703;51.060;-0.086;2022-09-17T05:38:35;100778.39;;;6.36;54.88
57885;BME280;43703;51.060;-0.086;2022-09-17T05:41:05;100784.49;;;6.65;56.72
57885;BME280;43703;51.060;-0.086;2022-09-17T05:43:25;100783.33;;;6.64;56.85
57885;BME280;43703;51.060;-0.086;2022-09-17T05:45:50;100784.03;;;6.75;57.07
57885;BME280;43703;51.060;-0.086;2022-09-17T05:48:15;100783.49;;;6.09;55.58
57885;BME280;43703;51.060;-0.086;2022-09-17T05:50:40;100788.97;;;6.73;57.63
57885;BME280;43703;51.060;-0.086;2022-09-17T05:53:06;100790.70;;;6.34;56.58
57885;BME280;43703;51.060;-0.086;2022-09-17T05:55:30;100793.03;;;6.34;55.47
57885;BME280;43703;51.060;-0.086;2022-09-17T05:57:55;100793.64;;;6.26;55.76
57885;BME280;43703;51.060;-0.086;2022-09-17T06:00:20;100797.03;;;6.44;55.96
57885;BME280;43703;51.060;-0.086;2022-09-17T06:02:45;100801.02;;;6.37;55.97
57885;BME280;43703;51.060;-0.086;2022-09-17T06:05:10;100803.02;;;7.56;58.29
57885;BME280;43703;51.060;-0.086;2022-09-17T06:07:36;100801.06;;;6.81;55.24
57885;BME280;43703;51.060;-0.086;2022-09-17T06:10:01;100803.05;;;6.88;55.74
57885;BME280;43703;51.060;-0.086;2022-09-17T06:12:26;100806.64;;;7.31;56.93
57885;BME280;43703;51.060;-0.086;2022-09-17T06:14:50;100809.65;;;6.96;56.05
57885;BME280;43703;51.060;-0.086;2022-09-17T06:17:15;100810.61;;;7.39;57.33
57885;BME280;43703;51.060;-0.086;2022-09-17T06:19:41;100811.95;;;7.29;56.80
57885;BME280;43703;51.060;-0.086;2022-09-17T06:22:06;100812.89;;;7.13;55.86
57885;BME280;43703;51.060;-0.086;2022-09-17T06:24:31;100816.16;;;7.09;57.05
57885;BME280;43703;51.060;-0.086;2022-09-17T06:26:55;100816.46;;;6.87;56.25
57885;BME280;43703;51.060;-0.086;2022-09-17T06:29:21;100818.16;;;6.78;54.77
57885;BME280;43703;51.060;-0.086;2022-09-17T06:31:49;100819.83;;;7.31;56.86
57885;BME280;43703;51.060;-0.086;2022-09-17T06:34:11;100817.47;;;7.28;56.01
57885;BME280;43703;51.060;-0.086;2022-09-17T06:36:36;100817.18;;;7.41;56.88
57885;BME280;43703;51.060;-0.086;2022-09-17T06:39:01;100815.68;;;7.46;56.56
57885;BME280;43703;51.060;-0.086;2022-09-17T06:41:26;100818.07;;;7.74;57.67
57885;BME280;43703;51.060;-0.086;2022-09-17T06:43:52;100816.41;;;7.65;57.16
57885;BME280;43703;51.060;-0.086;2022-09-17T06:46:16;100818.41;;;7.80;57.21
57885;BME280;43703;51.060;-0.086;2022-09-17T06:48:42;100817.59;;;8.01;55.97
57885;BME280;43703;51.060;-0.086;2022-09-17T06:51:10;100819.04;;;7.64;55.67
57885;BME280;43703;51.060;-0.086;2022-09-17T06:53:33;100818.91;;;8.18;57.24
57885;BME280;43703;51.060;-0.086;2022-09-17T06:55:58;100817.74;;;8.04;56.37
57885;BME280;43703;51.060;-0.086;2022-09-17T06:58:22;100821.67;;;8.08;55.33
57885;BME280;43703;51.060;-0.086;2022-09-17T07:00:47;100824.70;;;8.32;58.90
57885;BME280;43703;51.060;-0.086;2022-09-17T07:03:12;100824.14;;;7.46;55.68
57885;BME280;43703;51.060;-0.086;2022-09-17T07:05:37;100819.13;;;7.93;56.17
57885;BME280;43703;51.060;-0.086;2022-09-17T07:08:02;100820.80;;;7.74;56.46
57885;BME280;43703;51.060;-0.086;2022-09-17T07:10:27;100826.17;;;7.82;56.98
57885;BME280;43703;51.060;-0.086;2022-09-17T07:12:52;100825.85;;;7.77;54.77
57885;BME280;43703;51.060;-0.086;2022-09-17T07:15:17;100828.86;;;8.35;56.65
57885;BME280;43703;51.060;-0.086;2022-09-17T07:17:42;100829.64;;;8.43;56.36
57885;BME280;43703;51.060;-0.086;2022-09-17T07:20:08;100828.14;;;8.52;55.16
57885;BME280;43703;51.060;-0.086;2022-09-17T07:22:32;100825.02;;;8.76;56.30
57885;BME280;43703;51.060;-0.086;2022-09-17T07:24:57;100819.83;;;9.36;57.16
57885;BME280;43703;51.060;-0.086;2022-09-17T07:27:23;100819.29;;;10.10;52.16
57885;BME280;43703;51.060;-0.086;2022-09-17T07:29:47;100819.76;;;10.83;52.09
57885;BME280;43703;51.060;-0.086;2022-09-17T07:32:12;100821.43;;;11.68;50.05
57885;BME280;43703;51.060;-0.086;2022-09-17T07:34:37;100823.35;;;10.96;47.04
57885;BME280;43703;51.060;-0.086;2022-09-17T07:37:02;100821.99;;;11.54;47.20
57885;BME280;43703;51.060;-0.086;2022-09-17T07:39:27;100819.03;;;12.51;47.36
57885;BME280;43703;51.060;-0.086;2022-09-17T07:41:52;100818.66;;;13.25;45.24
57885;BME280;43703;51.060;-0.086;2022-09-17T07:44:17;100817.20;;;13.89;42.76
57885;BME280;43703;51.060;-0.086;2022-09-17T07:46:42;100816.33;;;14.34;43.95
57885;BME280;43703;51.060;-0.086;2022-09-17T07:49:07;100815.28;;;15.02;43.49
57885;BME280;43703;51.060;-0.086;2022-09-17T07:51:33;100816.78;;;15.66;42.66
57885;BME280;43703;51.060;-0.086;2022-09-17T07:53:59;100816.27;;;15.30;40.25
57885;BME280;43703;51.060;-0.086;2022-09-17T07:56:25;100810.77;;;15.48;38.03
57885;BME280;43703;51.060;-0.086;2022-09-17T07:58:50;100815.81;;;14.87;39.51
57885;BME280;43703;51.060;-0.086;2022-09-17T08:01:16;100813.98;;;15.68;40.32
57885;BME280;43703;51.060;-0.086;2022-09-17T08:03:42;100815.70;;;16.21;38.65
57885;BME280;43703;51.060;-0.086;2022-09-17T08:06:09;100818.66;;;15.72;37.98
57885;BME280;43703;51.060;-0.086;2022-09-17T08:08:34;100821.24;;;14.66;39.03
57885;BME280;43703;51.060;-0.086;2022-09-17T08:11:00;100822.55;;;15.77;38.69
57885;BME280;43703;51.060;-0.086;2022-09-17T08:13:25;100821.76;;;15.33;40.15
57885;BME280;43703;51.060;-0.086;2022-09-17T08:15:50;100825.74;;;15.66;38.29
57885;BME280;43703;51.060;-0.086;2022-09-17T08:18:16;100829.79;;;14.91;37.51
57885;BME280;43703;51.060;-0.086;2022-09-17T08:20:42;100832.95;;;17.10;36.39
57885;BME280;43703;51.060;-0.086;2022-09-17T08:23:08;100831.88;;;17.51;38.08
57885;BME280;43703;51.060;-0.086;2022-09-17T08:25:34;100836.53;;;17.55;37.53
57885;BME280;43703;51.060;-0.086;2022-09-17T08:28:00;100835.22;;;16.68;37.90
57885;BME280;43703;51.060;-0.086;2022-09-17T08:30:26;100833.50;;;16.68;36.76
57885;BME280;43703;51.060;-0.086;2022-09-17T08:32:54;100833.52;;;17.54;35.24
57885;BME280;43703;51.060;-0.086;2022-09-17T08:35:17;100828.45;;;17.16;36.91
57885;BME280;43703;51.060;-0.086;2022-09-17T08:37:43;100837.91;;;16.82;35.83
57885;BME280;43703;51.060;-0.086;2022-09-17T08:40:12;100838.60;;;17.90;37.38
57885;BME280;43703;51.060;-0.086;2022-09-17T08:42:38;100843.28;;;18.90;35.01
57885;BME280;43703;51.060;-0.086;2022-09-17T08:45:02;100845.50;;;19.11;37.18
57885;BME280;43703;51.060;-0.086;2022-09-17T08:47:28;100840.97;;;17.42;37.33
57885;BME280;43703;51.060;-0.086;2022-09-17T08:49:54;100841.88;;;17.31;35.57
57885;BME280;43703;51.060;-0.086;2022-09-17T08:52:33;100844.20;;;18.52;32.77
57885;BME280;43703;51.060;-0.086;2022-09-17T08:54:47;100847.10;;;18.51;33.19
57885;BME280;43703;51.060;-0.086;2022-09-17T08:57:15;100841.73;;;17.99;34.21
57885;BME280;43703;51.060;-0.086;2022-09-17T08:59:37;100848.47;;;19.10;32.55
57885;BME280;43703;51.060;-0.086;2022-09-17T09:02:10;100850.67;;;19.65;32.68
57885;BME280;43703;51.060;-0.086;2022-09-17T09:06:56;100848.43;;;20.43;31.63
57885;BME280;43703;51.060;-0.086;2022-09-17T09:09:21;100844.16;;;18.90;33.06
57885;BME280;43703;51.060;-0.086;2022-09-17T09:11:45;100846.90;;;18.40;34.01
57885;BME280;43703;51.060;-0.086;2022-09-17T09:14:15;100844.92;;;19.51;35.54
57885;BME280;43703;51.060;-0.086;2022-09-17T09:16:38;100842.76;;;20.14;31.80
57885;BME280;43703;51.060;-0.086;2022-09-17T09:19:12;100837.57;;;20.80;29.85
57885;BME280;43703;51.060;-0.086;2022-09-17T09:21:29;100838.85;;;21.39;30.78
57885;BME280;43703;51.060;-0.086;2022-09-17T09:23:54;100840.62;;;22.31;30.78
57885;BME280;43703;51.060;-0.086;2022-09-17T09:26:20;100842.80;;;21.74;28.86
57885;BME280;43703;51.060;-0.086;2022-09-17T09:28:54;100839.56;;;21.03;29.02
57885;BME280;43703;51.060;-0.086;2022-09-17T09:31:21;100841.74;;;21.18;31.05
57885;BME280;43703;51.060;-0.086;2022-09-17T09:33:39;100847.14;;;21.43;28.27
57885;BME280;43703;51.060;-0.086;2022-09-17T09:36:06;100844.93;;;22.29;29.85
57885;BME280;43703;51.060;-0.086;2022-09-17T09:38:32;100841.41;;;22.37;29.11
57885;BME280;43703;51.060;-0.086;2022-09-17T09:40:59;100839.53;;;22.24;29.55
57885;BME280;43703;51.060;-0.086;2022-09-17T09:43:23;100838.88;;;21.56;29.82
57885;BME280;43703;51.060;-0.086;2022-09-17T09:45:57;100836.32;;;20.65;29.71
57885;BME280;43703;51.060;-0.086;2022-09-17T09:48:17;100835.46;;;22.09;30.07
57885;BME280;43703;51.060;-0.086;2022-09-17T09:50:44;100834.01;;;22.18;27.51
57885;BME280;43703;51.060;-0.086;2022-09-17T09:53:11;100835.76;;;21.83;27.84
57885;BME280;43703;51.060;-0.086;2022-09-17T09:55:44;100832.48;;;20.90;29.03
57885;BME280;43703;51.060;-0.086;2022-09-17T09:58:02;100836.83;;;22.83;28.35
57885;BME280;43703;51.060;-0.086;2022-09-17T10:00:25;100840.74;;;23.66;28.08
57885;BME280;43703;51.060;-0.086;2022-09-17T10:02:47;100838.22;;;21.93;28.31
57885;BME280;43703;51.060;-0.086;2022-09-17T10:05:13;100841.92;;;21.05;28.58
57885;BME280;43703;51.060;-0.086;2022-09-17T10:07:42;100839.60;;;20.02;29.39
57885;BME280;43703;51.060;-0.086;2022-09-17T10:10:08;100836.18;;;21.34;29.90
57885;BME280;43703;51.060;-0.086;2022-09-17T10:12:29;100837.70;;;19.79;28.70
57885;BME280;43703;51.060;-0.086;2022-09-17T10:14:55;100838.69;;;20.07;31.40
57885;BME280;43703;51.060;-0.086;2022-09-17T10:17:22;100838.85;;;19.81;29.94
57885;BME280;43703;51.060;-0.086;2022-09-17T10:22:22;100840.88;;;22.77;31.12
57885;BME280;43703;51.060;-0.086;2022-09-17T10:24:39;100836.79;;;22.88;28.94
57885;BME280;43703;51.060;-0.086;2022-09-17T10:27:06;100839.49;;;23.22;26.07
57885;BME280;43703;51.060;-0.086;2022-09-17T10:29:31;100835.08;;;23.32;27.30
57885;BME280;43703;51.060;-0.086;2022-09-17T10:31:57;100831.67;;;22.94;27.88
57885;BME280;43703;51.060;-0.086;2022-09-17T10:34:23;100828.05;;;23.35;27.04
57885;BME280;43703;51.060;-0.086;2022-09-17T10:36:48;100824.82;;;22.79;27.13
57885;BME280;43703;51.060;-0.086;2022-09-17T10:39:21;100825.56;;;21.25;27.28
57885;BME280;43703;51.060;-0.086;2022-09-17T10:44:16;100823.95;;;22.27;27.21
57885;BME280;43703;51.060;-0.086;2022-09-17T10:46:31;100819.12;;;23.76;26.50
57885;BME280;43703;51.060;-0.086;2022-09-17T10:49:07;100821.36;;;23.90;28.05
57885;BME280;43703;51.060;-0.086;2022-09-17T10:51:24;100817.82;;;23.25;26.47
57885;BME280;43703;51.060;-0.086;2022-09-17T10:54:01;100813.11;;;22.25;26.53
57885;BME280;43703;51.060;-0.086;2022-09-17T10:56:20;100815.21;;;23.53;27.45
57885;BME280;43703;51.060;-0.086;2022-09-17T10:58:48;100816.02;;;22.84;25.87
57885;BME280;43703;51.060;-0.086;2022-09-17T11:01:14;100812.95;;;24.53;27.65
57885;BME280;43703;51.060;-0.086;2022-09-17T11:03:48;100811.49;;;22.01;27.69
57885;BME280;43703;51.060;-0.086;2022-09-17T11:08:28;100810.39;;;21.84;27.72
57885;BME280;43703;51.060;-0.086;2022-09-17T11:10:56;100815.65;;;22.98;27.73
57885;BME280;43703;51.060;-0.086;2022-09-17T11:13:22;100815.41;;;24.52;26.95
57885;BME280;43703;51.060;-0.086;2022-09-17T11:15:49;100816.22;;;22.77;27.30
57885;BME280;43703;51.060;-0.086;2022-09-17T11:18:20;100819.19;;;24.06;28.41
57885;BME280;43703;51.060;-0.086;2022-09-17T11:20:46;100808.14;;;24.04;24.72
57885;BME280;43703;51.060;-0.086;2022-09-17T11:23:09;100807.95;;;24.27;26.57
57885;BME280;43703;51.060;-0.086;2022-09-17T11:25:34;100807.69;;;25.27;26.16
57885;BME280;43703;51.060;-0.086;2022-09-17T11:28:02;100806.42;;;24.41;23.95
57885;BME280;43703;51.060;-0.086;2022-09-17T11:30:18;100800.53;;;25.04;24.45
57885;BME280;43703;51.060;-0.086;2022-09-17T11:32:56;100793.09;;;24.75;24.97
57885;BME280;43703;51.060;-0.086;2022-09-17T11:35:10;100788.90;;;24.89;25.41
57885;BME280;43703;51.060;-0.086;2022-09-17T11:37:37;100786.46;;;25.88;25.49
57885;BME280;43703;51.060;-0.086;2022-09-17T11:40:02;100792.14;;;23.31;26.26
57885;BME280;43703;51.060;-0.086;2022-09-17T11:42:29;100781.46;;;24.11;26.94
57885;BME280;43703;51.060;-0.086;2022-09-17T11:44:54;100781.41;;;24.96;25.14
57885;BME280;43703;51.060;-0.086;2022-09-17T11:47:19;100785.00;;;23.72;26.74
57885;BME280;43703;51.060;-0.086;2022-09-17T11:49:47;100784.72;;;25.07;24.68
57885;BME280;43703;51.060;-0.086;2022-09-17T11:52:12;100780.39;;;22.21;25.37
57885;BME280;43703;51.060;-0.086;2022-09-17T11:54:39;100782.85;;;22.85;25.94
57885;BME280;43703;51.060;-0.086;2022-09-17T11:57:06;100786.41;;;23.73;25.85
57885;BME280;43703;51.060;-0.086;2022-09-17T11:59:31;100784.73;;;22.97;26.09
57885;BME280;43703;51.060;-0.086;2022-09-17T12:01:55;100788.81;;;23.41;28.07
57885;BME280;43703;51.060;-0.086;2022-09-17T12:04:30;100786.04;;;22.12;28.68
57885;BME280;43703;51.060;-0.086;2022-09-17T12:06:49;100790.34;;;22.37;28.79
57885;BME280;43703;51.060;-0.086;2022-09-17T12:09:14;100788.58;;;23.58;25.26
57885;BME280;43703;51.060;-0.086;2022-09-17T12:11:40;100783.73;;;21.74;27.46
57885;BME280;43703;51.060;-0.086;2022-09-17T12:14:04;100781.95;;;22.61;27.26
57885;BME280;43703;51.060;-0.086;2022-09-17T12:16:32;100785.53;;;20.92;29.38
57885;BME280;43703;51.060;-0.086;2022-09-17T12:18:58;100783.52;;;22.18;28.16
57885;BME280;43703;51.060;-0.086;2022-09-17T12:21:21;100778.50;;;21.45;28.59
57885;BME280;43703;51.060;-0.086;2022-09-17T12:23:49;100780.15;;;21.18;31.25
57885;BME280;43703;51.060;-0.086;2022-09-17T12:26:22;100782.49;;;18.58;33.19
57885;BME280;43703;51.060;-0.086;2022-09-17T12:28:42;100780.94;;;18.14;33.14
57885;BME280;43703;51.060;-0.086;2022-09-17T12:31:08;100778.01;;;18.53;32.30
57885;BME280;43703;51.060;-0.086;2022-09-17T12:33:31;100770.77;;;18.77;33.16
57885;BME280;43703;51.060;-0.086;2022-09-17T12:36:02;100771.43;;;18.30;33.17
57885;BME280;43703;51.060;-0.086;2022-09-17T12:38:33;100769.52;;;17.58;32.33
57885;BME280;43703;51.060;-0.086;2022-09-17T12:40:50;100766.54;;;16.91;34.42
57885;BME280;43703;51.060;-0.086;2022-09-17T12:43:29;100766.36;;;17.63;35.85
57885;BME280;43703;51.060;-0.086;2022-09-17T12:45:47;100762.92;;;17.05;35.22
57885;BME280;43703;51.060;-0.086;2022-09-17T12:48:15;100762.02;;;17.11;34.60
57885;BME280;43703;51.060;-0.086;2022-09-17T12:50:37;100763.08;;;16.51;33.43